Time;durP1;ratioP1;P1;durP2;ratioP2;P2;SDS_P1;SDS_P2;PMS_P1;PMS_P2;Temp;Humidity;BMP_temperature;BMP_pressure;BME280_temperature;BME280_humidity;BME280_pressure;Samples;Min_cycle;Max_cycle;Signal;HPM_P1;HPM_P2
2024/02/01 00:00:21;;;;;;;10.63;7.40;;;;;;;8.32;100.00;102231.13;5029114;28;20119;-69
2024/02/01 00:02:47;;;;;;;12.60;7.88;;;;;;;8.32;100.00;102242.19;5055093;28;20055;-70
2024/02/01 00:05:12;;;;;;;12.73;7.65;;;;;;;8.31;100.00;102229.44;5062277;28;20219;-69
2024/02/01 00:07:38;;;;;;;12.73;7.00;;;;;;;8.32;100.00;102226.44;5042591;28;20033;-69
2024/02/01 00:10:04;;;;;;;12.35;6.78;;;;;;;8.32;100.00;102225.59;5031632;28;20416;-69
2024/02/01 00:12:29;;;;;;;13.13;7.57;;;;;;;8.30;100.00;102217.50;5074190;28;20107;-69
2024/02/01 00:14:56;;;;;;;11.40;7.40;;;;;;;8.33;100.00;102214.28;5035699;28;20481;-69
2024/02/01 00:17:21;;;;;;;16.13;7.85;;;;;;;8.32;100.00;102215.34;5051766;28;20101;-69
2024/02/01 00:19:47;;;;;;;15.27;8.55;;;;;;;8.33;100.00;102216.19;5051339;28;20028;-69
2024/02/01 00:22:13;;;;;;;15.85;8.82;;;;;;;8.35;100.00;102206.56;5065317;28;20489;-69
2024/02/01 00:24:38;;;;;;;11.20;7.55;;;;;;;8.35;100.00;102203.81;5064011;28;20068;-69
2024/02/01 00:27:04;;;;;;;12.68;7.93;;;;;;;8.36;100.00;102202.75;5051465;28;20039;-69
2024/02/01 00:29:29;;;;;;;15.55;8.88;;;;;;;8.38;100.00;102202.50;5043605;28;20111;-69
2024/02/01 00:31:55;;;;;;;16.45;8.60;;;;;;;8.37;100.00;102190.56;5044768;28;20025;-69
2024/02/01 00:34:21;;;;;;;14.35;8.95;;;;;;;8.36;100.00;102190.81;5060026;28;20039;-69
2024/02/01 00:36:47;;;;;;;16.00;8.23;;;;;;;8.35;100.00;102184.44;5073983;28;20067;-69
2024/02/01 00:39:12;;;;;;;13.88;8.52;;;;;;;8.35;100.00;102167.81;5059764;28;20028;-69
2024/02/01 00:41:38;;;;;;;19.63;8.70;;;;;;;8.36;100.00;102171.41;5055286;28;20037;-69
2024/02/01 00:44:04;;;;;;;15.05;9.38;;;;;;;8.39;100.00;102168.25;5042813;28;20082;-69
2024/02/01 00:46:29;;;;;;;17.05;9.50;;;;;;;8.39;100.00;102151.63;5055852;28;20035;-69
2024/02/01 00:48:55;;;;;;;13.27;8.60;;;;;;;8.39;100.00;102159.94;5072812;28;20098;-69
2024/02/01 00:51:20;;;;;;;19.17;11.05;;;;;;;8.40;100.00;102176.28;5044312;28;20036;-69
2024/02/01 00:53:46;;;;;;;15.23;9.82;;;;;;;8.42;100.00;102176.06;5067131;28;20555;-69
2024/02/01 00:56:11;;;;;;;17.20;9.88;;;;;;;8.44;100.00;102173.88;5037041;28;20041;-69
2024/02/01 00:58:37;;;;;;;15.70;9.77;;;;;;;8.42;100.00;102173.28;5048687;28;20532;-69
2024/02/01 01:01:02;;;;;;;15.70;9.98;;;;;;;8.43;100.00;102166.66;5049260;28;20036;-69
2024/02/01 01:03:28;;;;;;;14.45;8.70;;;;;;;8.43;100.00;102173.03;5052147;28;20055;-69
2024/02/01 01:05:53;;;;;;;16.27;9.43;;;;;;;8.44;100.00;102171.09;5053606;28;20476;-69
2024/02/01 01:08:19;;;;;;;16.88;9.85;;;;;;;8.44;100.00;102168.34;5078547;28;20043;-69
2024/02/01 01:10:45;;;;;;;16.48;10.05;;;;;;;8.45;100.00;102170.03;5060782;28;20024;-69
2024/02/01 01:13:14;;;;;;;13.07;9.07;;;;;;;8.44;100.00;102165.56;5060892;28;20112;-69
2024/02/01 01:46:33;;;;;;;13.10;8.30;;;;;;;8.47;100.00;102181.72;5068295;28;20064;-69
2024/02/01 01:48:59;;;;;;;14.93;8.82;;;;;;;8.47;100.00;102173.41;5074450;28;20056;-69
2024/02/01 01:51:24;;;;;;;15.60;8.70;;;;;;;8.46;100.00;102178.09;5036036;28;20028;-69
2024/02/01 01:53:49;;;;;;;12.70;7.88;;;;;;;8.48;100.00;102183.41;5051855;28;20029;-69
2024/02/01 01:56:15;;;;;;;11.13;7.70;;;;;;;8.48;100.00;102167.63;5054156;28;20035;-69
2024/02/01 01:58:40;;;;;;;11.93;7.22;;;;;;;8.48;100.00;102175.94;5038685;28;20028;-69
2024/02/01 02:01:06;;;;;;;16.67;9.15;;;;;;;8.49;100.00;102172.06;5043168;28;20029;-69
2024/02/01 02:03:32;;;;;;;11.88;7.13;;;;;;;8.49;100.00;102176.78;5046845;28;20037;-69
2024/02/01 02:05:58;;;;;;;13.63;7.57;;;;;;;8.50;100.00;102186.78;5059966;28;20035;-69
2024/02/01 02:08:23;;;;;;;11.18;7.00;;;;;;;8.50;100.00;102184.03;5068128;28;20044;-69
2024/02/01 02:10:49;;;;;;;14.60;8.18;;;;;;;8.49;100.00;102183.16;5076368;28;20033;-69
2024/02/01 02:13:14;;;;;;;12.75;7.47;;;;;;;8.51;100.00;102182.91;5062927;28;20037;-70
2024/02/01 02:15:40;;;;;;;12.23;6.78;;;;;;;8.50;100.00;102190.38;5058442;28;20036;-69
2024/02/01 02:18:09;;;;;;;10.07;6.43;;;;;;;8.52;100.00;102186.53;5063466;28;20051;-70
2024/02/01 02:20:38;;;;;;;11.75;6.50;;;;;;;8.51;100.00;102185.69;5061404;28;20036;-69
2024/02/01 02:23:04;;;;;;;12.80;7.13;;;;;;;8.52;100.00;102183.75;5038064;28;20032;-69
2024/02/01 02:25:29;;;;;;;10.60;6.80;;;;;;;8.53;100.00;102179.94;5035661;28;20031;-69
2024/02/01 02:27:55;;;;;;;10.65;5.93;;;;;;;8.54;100.00;102179.66;5045582;28;20039;-69
2024/02/01 02:30:21;;;;;;;14.75;7.25;;;;;;;8.53;100.00;102177.16;5054675;28;20032;-69
2024/02/01 02:32:46;;;;;;;11.27;6.20;;;;;;;8.54;100.00;102174.13;5051730;28;20032;-69
2024/02/01 02:35:12;;;;;;;8.57;5.82;;;;;;;8.53;100.00;102153.06;5029182;28;20025;-69
2024/02/01 02:37:48;;;;;;;9.13;5.85;;;;;;;8.56;100.00;102154.53;5049960;28;20424;-69
2024/02/01 02:40:18;;;;;;;9.18;5.80;;;;;;;8.55;100.00;102158.34;5047380;28;20032;-69
2024/02/01 02:42:43;;;;;;;9.85;6.20;;;;;;;8.55;100.00;102153.66;5035427;28;20488;-69
2024/02/01 02:45:10;;;;;;;8.93;5.78;;;;;;;8.53;100.00;102155.84;5040835;28;20136;-69
2024/02/01 02:47:35;;;;;;;8.32;5.13;;;;;;;8.55;100.00;102156.41;5034056;28;20044;-69
2024/02/01 02:50:01;;;;;;;8.85;5.85;;;;;;;8.55;100.00;102159.19;5038995;28;20029;-69
2024/02/01 02:52:27;;;;;;;8.70;5.43;;;;;;;8.56;100.00;102155.34;5051180;28;20032;-69
2024/02/01 02:54:52;;;;;;;10.20;4.80;;;;;;;8.56;100.00;102144.28;5054658;28;20040;-69
2024/02/01 02:57:17;;;;;;;9.98;5.30;;;;;;;8.54;100.00;102124.28;5034427;28;20036;-69
2024/02/01 02:59:44;;;;;;;10.52;5.25;;;;;;;8.55;100.00;102119.59;5051557;28;20032;-69
2024/02/01 03:02:10;;;;;;;8.15;5.00;;;;;;;8.56;100.00;102124.06;5048821;28;20519;-69
2024/02/01 03:04:35;;;;;;;12.93;6.80;;;;;;;8.56;100.00;102122.13;5032487;28;20055;-69
2024/02/01 03:07:01;;;;;;;10.45;4.90;;;;;;;8.58;100.00;102119.97;5059290;28;20444;-69
2024/02/01 03:09:26;;;;;;;8.30;5.18;;;;;;;8.58;100.00;102119.09;5053600;28;20047;-69
2024/02/01 03:11:52;;;;;;;9.85;5.47;;;;;;;8.56;100.00;102124.91;5033529;28;20025;-69
2024/02/01 03:14:17;;;;;;;9.82;5.20;;;;;;;8.58;100.00;102119.97;5036897;28;20043;-69
2024/02/01 03:16:43;;;;;;;10.85;5.15;;;;;;;8.58;100.00;102125.50;5022855;28;20025;-69
2024/02/01 03:19:11;;;;;;;10.93;4.63;;;;;;;8.58;100.00;102127.41;5045738;28;20038;-69
2024/02/01 03:21:36;;;;;;;9.63;5.55;;;;;;;8.58;100.00;102128.28;5049821;28;20029;-69
2024/02/01 03:24:02;;;;;;;11.55;5.90;;;;;;;8.58;100.00;102117.19;5036922;28;20037;-69
2024/02/01 03:26:34;;;;;;;8.48;5.40;;;;;;;8.59;100.00;102116.09;5041637;28;20032;-69
2024/02/01 03:29:00;;;;;;;7.85;4.93;;;;;;;8.60;100.00;102128.84;5037925;28;20564;-70
2024/02/01 03:31:33;;;;;;;8.85;5.38;;;;;;;8.59;100.00;102124.41;5062397;28;20036;-69
2024/02/01 03:34:01;;;;;;;9.40;5.18;;;;;;;8.59;100.00;102127.19;5054176;28;20147;-69
2024/02/01 03:36:26;;;;;;;10.20;5.05;;;;;;;8.59;100.00;102129.13;5041898;28;20044;-69
2024/02/01 03:38:52;;;;;;;7.88;4.65;;;;;;;8.60;100.00;102131.63;5033144;28;20090;-69
2024/02/01 03:41:18;;;;;;;8.95;5.43;;;;;;;8.60;100.00;102122.47;5066080;28;20393;-69
2024/02/01 03:43:43;;;;;;;11.80;5.22;;;;;;;8.61;100.00;102130.56;5059418;28;20031;-69
2024/02/01 03:46:09;;;;;;;11.88;6.18;;;;;;;8.61;100.00;102130.56;5044326;28;20067;-69
2024/02/01 03:48:34;;;;;;;9.07;5.22;;;;;;;8.60;100.00;102139.94;5018301;28;20040;-69
2024/02/01 03:51:00;;;;;;;12.50;5.15;;;;;;;8.61;100.00;102155.47;5017972;28;20389;-69
2024/02/01 03:53:26;;;;;;;7.22;4.80;;;;;;;8.59;100.00;102154.88;5017899;28;20048;-69
2024/02/01 03:55:51;;;;;;;8.55;4.78;;;;;;;8.61;100.00;102157.38;5034612;28;20044;-69
2024/02/01 03:58:17;;;;;;;12.10;5.10;;;;;;;8.61;100.00;102163.78;5002153;28;20546;-69
2024/02/01 04:00:42;;;;;;;10.18;5.20;;;;;;;8.61;100.00;102172.09;5031972;28;20029;-69
2024/02/01 04:03:14;;;;;;;10.10;4.97;;;;;;;8.62;100.00;102171.00;5049763;28;20568;-69
2024/02/01 04:05:40;;;;;;;8.00;5.18;;;;;;;8.62;100.00;102165.47;5038639;28;20104;-69
2024/02/01 04:08:07;;;;;;;8.32;4.28;;;;;;;8.61;100.00;102155.47;5037628;28;20477;-69
2024/02/01 04:10:36;;;;;;;11.05;4.70;;;;;;;8.62;100.00;102162.69;5054147;28;20029;-69
2024/02/01 04:13:06;;;;;;;11.55;5.05;;;;;;;8.62;100.00;102167.41;5037222;28;20028;-69
2024/02/01 04:15:34;;;;;;;9.13;4.78;;;;;;;8.62;100.00;102170.16;5054483;28;20029;-69
2024/02/01 04:18:00;;;;;;;9.95;4.95;;;;;;;8.62;100.00;102171.00;5021083;28;20122;-69
2024/02/01 04:20:26;;;;;;;9.45;4.75;;;;;;;8.62;100.00;102167.41;5054277;28;20047;-69
2024/02/01 04:22:53;;;;;;;8.70;4.70;;;;;;;8.61;100.00;102163.78;5037203;28;20477;-69
2024/02/01 04:25:23;;;;;;;7.82;4.20;;;;;;;8.62;100.00;102156.31;5038132;28;20057;-69
2024/02/01 04:27:49;;;;;;;6.03;4.20;;;;;;;8.62;100.00;102159.94;5051900;28;20111;-69
2024/02/01 04:30:16;;;;;;;12.15;5.43;;;;;;;8.62;100.00;102159.94;5052737;28;20033;-69
2024/02/01 04:32:41;;;;;;;9.95;5.32;;;;;;;8.61;100.00;102146.31;5044064;28;20116;-69
2024/02/01 04:35:07;;;;;;;8.52;5.63;;;;;;;8.61;100.00;102149.94;5037526;28;20032;-69
2024/02/01 04:37:34;;;;;;;8.57;4.47;;;;;;;8.61;100.00;102149.94;5037165;28;20124;-69
2024/02/01 04:40:00;;;;;;;12.80;5.15;;;;;;;8.62;100.00;102148.84;5054217;28;20037;-70
2024/02/01 04:42:30;;;;;;;7.10;4.13;;;;;;;8.62;100.00;102148.84;5004442;28;20052;-69
2024/02/01 04:44:57;;;;;;;11.88;4.75;;;;;;;8.64;100.00;102156.94;5049314;28;20032;-69
2024/02/01 04:47:25;;;;;;;7.35;4.30;;;;;;;8.64;100.00;102154.16;5037245;28;20041;-69
2024/02/01 04:49:50;;;;;;;7.88;4.07;;;;;;;8.61;100.00;102155.47;5037619;28;20033;-69
2024/02/01 04:52:16;;;;;;;9.75;5.15;;;;;;;8.63;100.00;102169.91;5037633;28;20034;-69
2024/02/01 04:54:41;;;;;;;11.23;4.72;;;;;;;8.63;100.00;102169.91;5030768;28;20068;-69
2024/02/01 04:57:13;;;;;;;10.30;5.30;;;;;;;8.65;100.00;102176.06;5038088;28;20040;-69
2024/02/01 04:59:43;;;;;;;8.93;4.75;;;;;;;8.64;100.00;102168.84;5028167;28;20021;-69
2024/02/01 05:02:09;;;;;;;9.38;4.88;;;;;;;8.64;100.00;102156.94;5042170;28;20037;-69
2024/02/01 05:04:34;;;;;;;8.80;4.53;;;;;;;8.63;100.00;102175.44;5015057;28;20485;-69
2024/02/01 05:07:00;;;;;;;12.13;5.05;;;;;;;8.63;100.00;102167.13;5053426;28;20052;-69
2024/02/01 05:09:26;;;;;;;9.57;5.10;;;;;;;8.63;100.00;102167.13;5054004;28;20033;-69
2024/02/01 05:11:54;;;;;;;8.65;4.80;;;;;;;8.64;100.00;102163.31;5030186;28;20024;-69
2024/02/01 05:14:20;;;;;;;8.73;4.90;;;;;;;8.63;100.00;102164.38;5053590;28;20037;-69
2024/02/01 05:16:45;;;;;;;8.02;4.68;;;;;;;8.64;100.00;102163.31;5053620;28;20028;-69
2024/02/01 05:19:11;;;;;;;7.53;4.40;;;;;;;8.63;100.00;102167.13;5042888;28;20025;-69
2024/02/01 05:21:36;;;;;;;7.95;4.65;;;;;;;8.65;100.00;102164.97;5053315;28;20033;-69
2024/02/01 05:24:02;;;;;;;10.00;4.25;;;;;;;8.63;100.00;102150.53;5042918;28;20025;-69
2024/02/01 05:26:27;;;;;;;7.75;4.50;;;;;;;8.62;100.00;102148.84;5034062;28;20104;-69
2024/02/01 05:28:53;;;;;;;11.55;4.97;;;;;;;8.64;100.00;102152.22;5052030;28;20087;-69
2024/02/01 05:31:21;;;;;;;12.43;5.22;;;;;;;8.64;100.00;102141.16;5032393;28;20033;-69
2024/02/01 05:33:47;;;;;;;9.13;4.20;;;;;;;8.62;100.00;102132.22;5046448;28;20025;-69
2024/02/01 05:36:13;;;;;;;12.02;6.20;;;;;;;8.63;100.00;102135.84;5038313;28;20153;-69
2024/02/01 05:38:41;;;;;;;11.55;5.55;;;;;;;8.61;100.00;102138.88;5027374;28;20025;-69
2024/02/01 05:41:11;;;;;;;8.07;4.80;;;;;;;8.63;100.00;102133.91;5014570;28;20028;-69
2024/02/01 05:43:43;;;;;;;9.55;5.78;;;;;;;8.63;100.00;102144.97;5049461;28;20071;-69
2024/02/01 05:46:14;;;;;;;12.85;5.07;;;;;;;8.63;100.00;102144.97;5052723;28;20057;-69
2024/02/01 05:48:41;;;;;;;10.98;5.10;;;;;;;8.64;100.00;102154.16;5044447;28;20112;-69
2024/02/01 05:51:06;;;;;;;11.02;4.93;;;;;;;8.63;100.00;102161.59;5046427;28;20059;-69
2024/02/01 05:53:32;;;;;;;9.43;4.90;;;;;;;8.62;100.00;102157.16;5059456;28;20138;-69
2024/02/01 05:55:59;;;;;;;9.05;5.10;;;;;;;8.63;100.00;102161.59;5060366;28;20024;-69
2024/02/01 05:58:27;;;;;;;10.93;5.68;;;;;;;8.62;100.00;102156.31;5060409;28;20031;-69
2024/02/01 06:00:53;;;;;;;11.63;5.22;;;;;;;8.62;100.00;102162.69;5076771;28;20082;-69
2024/02/01 06:03:18;;;;;;;13.07;5.45;;;;;;;8.61;100.00;102166.56;5076757;28;20034;-69
2024/02/01 06:05:48;;;;;;;11.38;5.82;;;;;;;8.62;100.00;102168.25;5076614;28;20037;-69
2024/02/01 06:08:16;;;;;;;12.13;5.43;;;;;;;8.62;100.00;102179.31;5060545;28;20020;-69
2024/02/01 06:10:42;;;;;;;10.30;5.20;;;;;;;8.62;100.00;102176.53;5076474;28;20033;-69
2024/02/01 06:13:07;;;;;;;9.23;5.10;;;;;;;8.62;100.00;102187.63;5059711;28;20029;-69
2024/02/01 06:15:36;;;;;;;15.85;6.00;;;;;;;8.62;100.00;102181.25;5059899;28;20028;-69
2024/02/01 06:18:01;;;;;;;12.68;5.93;;;;;;;8.61;100.00;102174.00;5043261;28;20154;-69
2024/02/01 06:20:27;;;;;;;9.82;5.55;;;;;;;8.61;100.00;102169.34;5076529;28;20024;-69
2024/02/01 06:22:52;;;;;;;8.65;5.45;;;;;;;8.62;100.00;102172.94;5057054;28;20029;-69
2024/02/01 06:25:18;;;;;;;11.95;6.00;;;;;;;8.63;100.00;102171.84;5072434;28;20036;-69
2024/02/01 06:27:43;;;;;;;11.35;5.57;;;;;;;8.61;100.00;102166.56;5071880;28;20029;-69
2024/02/01 06:30:12;;;;;;;9.90;5.25;;;;;;;8.62;100.00;102170.16;5073854;28;20042;-69
2024/02/01 06:32:39;;;;;;;11.38;5.68;;;;;;;8.62;100.00;102173.78;5057347;28;20115;-69
2024/02/01 06:35:12;;;;;;;11.52;5.63;;;;;;;8.62;100.00;102186.78;5058592;28;20408;-69
2024/02/01 06:37:40;;;;;;;10.80;5.55;;;;;;;8.62;100.00;102192.31;5046432;28;20043;-69
2024/02/01 06:43:09;;;;;;;10.77;5.72;;;;;;;8.61;100.00;102197.03;5047424;28;20020;-69
2024/02/01 06:45:44;;;;;;;9.38;4.85;;;;;;;8.63;100.00;102200.38;5067487;28;20033;-69
2024/02/01 06:48:11;;;;;;;12.13;4.80;;;;;;;8.62;100.00;102204.25;5041428;28;20131;-69
2024/02/01 06:50:54;;;;;;;8.85;5.13;;;;;;;8.63;100.00;102199.53;5046132;28;20085;-69
2024/02/01 06:53:20;;;;;;;9.43;5.05;;;;;;;8.61;100.00;102194.25;5044751;28;20037;-69
2024/02/01 06:55:54;;;;;;;12.30;4.88;;;;;;;8.60;100.00;102198.09;5074613;28;20040;-69
2024/02/01 06:58:38;;;;;;;9.48;4.88;;;;;;;8.60;100.00;102197.25;5075824;28;20059;-69
2024/02/01 07:03:57;;;;;;;15.75;5.78;;;;;;;8.58;100.00;102194.75;5061640;28;20025;-69
2024/02/01 07:06:35;;;;;;;13.30;6.45;;;;;;;8.58;100.00;102200.28;5043752;28;20104;-70
2024/02/01 07:09:17;;;;;;;10.63;6.35;;;;;;;8.57;100.00;102190.25;5045280;28;20477;-69
2024/02/01 07:11:58;;;;;;;13.20;6.85;;;;;;;8.58;100.00;102208.59;5061226;28;20524;-69
2024/02/01 07:14:35;;;;;;;13.70;6.97;;;;;;;8.58;100.00;102199.41;5067978;28;20036;-69
2024/02/01 07:17:16;;;;;;;15.27;7.45;;;;;;;8.59;100.00;102212.19;5044611;28;20123;-69
2024/02/01 07:19:53;;;;;;;11.55;6.63;;;;;;;8.59;100.00;102206.66;5072483;28;20040;-69
2024/02/01 07:22:34;;;;;;;14.63;6.03;;;;;;;8.58;100.00;102219.66;5059775;28;20128;-69
2024/02/01 07:25:11;;;;;;;9.80;6.00;;;;;;;8.58;100.00;102225.19;5070207;28;20646;-69
2024/02/01 07:57:51;;;;;;;10.10;6.20;;;;;;;8.62;100.00;102248.56;5077060;28;20373;-69
2024/02/01 08:00:19;;;;;;;13.13;6.15;;;;;;;8.63;100.00;102254.94;5075596;28;20103;-69
2024/02/01 08:03:00;;;;;;;12.00;5.93;;;;;;;8.63;100.00;102249.41;5075065;28;20107;-69
2024/02/01 08:08:10;;;;;;;10.30;5.55;;;;;;;8.66;100.00;102248.91;5057716;28;20052;-69
2024/02/01 08:10:35;;;;;;;13.50;5.60;;;;;;;8.68;100.00;102252.28;5070645;28;20032;-69
2024/02/01 08:13:07;;;;;;;9.75;5.80;;;;;;;8.68;100.00;102252.28;5041000;28;20392;-69
2024/02/01 08:15:40;;;;;;;11.00;5.57;;;;;;;8.69;100.00;102254.84;5033819;28;20025;-69
2024/02/01 08:18:08;;;;;;;11.15;5.60;;;;;;;8.71;100.00;102260.97;5058527;28;20036;-69
2024/02/01 08:20:42;;;;;;;11.23;5.60;;;;;;;8.73;100.00;102271.81;5074367;28;20028;-69
2024/02/01 08:23:13;;;;;;;10.85;5.85;;;;;;;8.74;100.00;102273.50;5072563;28;20040;-69
2024/02/01 08:25:40;;;;;;;10.60;5.45;;;;;;;8.76;100.00;102276.03;5068975;28;20487;-69
2024/02/01 08:28:08;;;;;;;9.70;5.47;;;;;;;8.78;100.00;102283.03;5057273;28;20033;-69
2024/02/01 08:30:34;;;;;;;10.02;5.47;;;;;;;8.80;100.00;102291.94;5057721;28;20032;-69
2024/02/01 08:33:03;;;;;;;11.75;6.00;;;;;;;8.82;100.00;102291.69;5081644;28;20029;-69
2024/02/01 08:35:33;;;;;;;9.68;5.75;;;;;;;8.84;100.00;102290.38;5057742;28;20036;-69
2024/02/01 08:38:00;;;;;;;11.23;5.38;;;;;;;8.86;100.00;102298.44;5046371;28;20033;-69
2024/02/01 08:40:25;;;;;;;10.73;5.70;;;;;;;8.89;100.00;102298.00;5039524;28;20017;-69
2024/02/01 08:42:58;;;;;;;10.40;5.35;;;;;;;8.89;100.00;102306.31;5073784;28;20050;-69
2024/02/01 08:45:24;;;;;;;11.77;5.97;;;;;;;8.91;100.00;102306.88;5022772;28;20493;-69
2024/02/01 08:47:49;;;;;;;11.15;5.43;;;;;;;8.94;100.00;102310.03;5042167;28;20442;-69
2024/02/01 08:50:15;;;;;;;12.10;5.35;;;;;;;8.96;100.00;102318.09;5023269;28;20040;-69
2024/02/01 08:52:45;;;;;;;10.45;5.63;;;;;;;8.99;100.00;102311.22;5033971;28;20029;-69
2024/02/01 08:55:13;;;;;;;14.85;5.80;;;;;;;9.01;100.00;102309.06;5043050;28;20039;-70
2024/02/01 08:57:39;;;;;;;13.02;5.68;;;;;;;9.02;100.00;102319.91;5036989;28;20057;-70
2024/02/01 09:00:21;;;;;;;15.05;5.63;;;;;;;9.05;100.00;102324.97;5044380;28;20052;-70
2024/02/01 09:03:39;;;;;;;12.07;5.75;;;;;;;9.07;100.00;102328.34;5057274;28;20032;-69
2024/02/01 09:05:49;;;;;;;12.18;5.68;;;;;;;9.08;100.00;102324.50;5042940;28;20135;-69
2024/02/01 09:08:36;;;;;;;9.45;6.10;;;;;;;9.13;100.00;102337.63;5046124;28;20029;-69
2024/02/01 09:11:11;;;;;;;11.10;5.88;;;;;;;9.17;100.00;102330.53;5053010;28;20646;-69
2024/02/01 09:13:44;;;;;;;12.27;6.03;;;;;;;9.18;100.00;102327.50;5051739;28;20055;-69
2024/02/01 09:16:32;;;;;;;12.38;5.50;;;;;;;9.25;100.00;102332.09;5038705;28;20029;-69
2024/02/01 09:19:00;;;;;;;11.98;6.03;;;;;;;9.28;100.00;102331.63;5058380;28;20103;-69
2024/02/01 09:21:25;;;;;;;13.32;5.50;;;;;;;9.31;100.00;102328.38;5017844;28;20489;-69
2024/02/01 09:23:51;;;;;;;13.25;5.80;;;;;;;9.34;100.00;102327.88;5052778;28;20098;-69
2024/02/01 09:26:16;;;;;;;12.75;5.22;;;;;;;9.36;100.00;102329.34;5051124;28;20028;-69
2024/02/01 09:28:43;;;;;;;17.10;5.80;;;;;;;9.42;100.00;102334.97;5058131;28;20036;-69
2024/02/01 09:31:21;;;;;;;10.05;5.53;;;;;;;9.46;100.00;102342.59;5040529;28;20112;-69
2024/02/01 09:33:48;;;;;;;10.75;5.32;;;;;;;9.49;100.00;102346.81;5032538;28;20030;-69
2024/02/01 09:36:14;;;;;;;10.80;5.40;;;;;;;9.53;100.00;102348.03;5056983;28;20083;-69
2024/02/01 09:38:40;;;;;;;12.85;5.25;;;;;;;9.58;100.00;102357.31;5042482;28;20025;-69
2024/02/01 09:41:05;;;;;;;11.80;5.07;;;;;;;9.61;100.00;102348.50;5040598;28;20048;-70
2024/02/01 09:43:32;;;;;;;8.85;5.40;;;;;;;9.66;100.00;102347.75;5057399;28;20033;-69
2024/02/01 09:46:02;;;;;;;12.00;5.80;;;;;;;9.68;100.00;102348.34;5037060;28;20083;-69
2024/02/01 09:48:27;;;;;;;13.20;5.93;;;;;;;9.75;100.00;102356.53;5075716;28;20108;-69
2024/02/01 09:50:56;;;;;;;11.02;5.65;;;;;;;9.77;100.00;102359.91;5064462;28;20035;-69
2024/02/01 09:53:25;;;;;;;10.38;5.53;;;;;;;9.83;100.00;102358.94;5056153;28;20039;-69
2024/02/01 09:55:55;;;;;;;9.45;5.03;;;;;;;9.86;100.00;102352.91;5044926;28;20035;-69
2024/02/01 09:58:21;;;;;;;12.80;5.60;;;;;;;9.89;100.00;102357.97;5070776;28;20048;-70
2024/02/01 10:00:46;;;;;;;10.85;5.03;;;;;;;9.93;100.00;102361.09;5080134;28;20433;-69
2024/02/01 10:03:22;;;;;;;12.45;5.22;;;;;;;9.97;100.00;102360.38;5069181;28;20028;-69
2024/02/01 10:05:48;;;;;;;8.85;4.95;;;;;;;9.98;100.00;102356.50;5048238;28;20036;-69
2024/02/01 10:08:14;;;;;;;11.27;4.90;;;;;;;10.00;100.00;102357.09;5084346;28;20039;-69
2024/02/01 10:10:41;;;;;;;10.77;5.13;;;;;;;10.04;100.00;102355.50;5042698;28;20506;-70
2024/02/01 10:13:13;;;;;;;11.38;4.95;;;;;;;10.06;100.00;102360.84;5062433;28;20025;-69
2024/02/01 10:15:46;;;;;;;12.67;5.20;;;;;;;10.10;100.00;102367.56;5065887;28;20024;-69
2024/02/01 10:18:21;;;;;;;8.73;4.70;;;;;;;10.12;100.00;102370.94;5036412;28;20542;-69
2024/02/01 10:20:51;;;;;;;9.57;4.88;;;;;;;10.15;100.00;102369.63;5055833;28;20078;-69
2024/02/01 10:23:16;;;;;;;11.07;4.68;;;;;;;10.18;100.00;102364.41;5060920;28;20036;-70
2024/02/01 10:25:49;;;;;;;12.00;4.97;;;;;;;10.20;100.00;102364.19;5056731;28;20153;-69
2024/02/01 10:28:19;;;;;;;8.00;4.25;;;;;;;10.20;100.00;102356.69;5061568;28;20474;-69
2024/02/01 10:30:45;;;;;;;10.25;5.05;;;;;;;10.25;100.00;102364.25;5084635;28;20016;-69
2024/02/01 10:33:12;;;;;;;7.70;4.35;;;;;;;10.28;100.00;102367.44;5070571;28;20068;-69
2024/02/01 10:35:38;;;;;;;10.15;4.85;;;;;;;10.32;100.00;102359.44;5049345;28;20025;-69
2024/02/01 10:38:11;;;;;;;8.80;4.70;;;;;;;10.33;100.00;102363.91;5062979;28;20366;-69
2024/02/01 10:40:39;;;;;;;8.82;4.93;;;;;;;10.37;100.00;102364.28;5066545;28;20050;-69
2024/02/01 10:43:05;;;;;;;10.93;4.60;;;;;;;10.41;100.00;102365.44;5081432;28;20396;-69
2024/02/01 10:45:32;;;;;;;8.13;4.50;;;;;;;10.45;100.00;102366.66;5056804;28;20037;-69
2024/02/01 10:47:59;;;;;;;10.15;4.50;;;;;;;10.49;100.00;102370.59;5061761;28;20048;-69
2024/02/01 10:50:25;;;;;;;8.13;4.50;;;;;;;10.50;100.00;102375.94;5058170;28;20513;-70
2024/02/01 10:52:50;;;;;;;8.48;4.95;;;;;;;10.57;100.00;102374.94;5035894;28;20487;-69
2024/02/01 10:55:17;;;;;;;9.27;4.72;;;;;;;10.61;100.00;102376.09;5037287;28;20036;-69
2024/02/01 10:57:42;;;;;;;12.18;4.40;;;;;;;10.64;100.00;102378.38;5051531;28;20043;-69
2024/02/01 11:00:19;;;;;;;6.07;3.92;;;;;;;10.68;100.00;102377.63;5078759;28;20028;-69
2024/02/01 11:02:50;;;;;;;7.90;4.65;;;;;;;10.72;100.00;102381.59;5083622;28;20036;-69
2024/02/01 11:05:17;;;;;;;8.45;4.55;;;;;;;10.79;100.00;102384.25;5078867;28;20063;-69
2024/02/01 11:07:42;;;;;;;7.38;3.78;;;;;;;10.83;100.00;102382.63;5087149;28;20036;-69
2024/02/01 11:10:15;;;;;;;7.90;3.72;;;;;;;10.86;100.00;102382.13;5077026;28;20039;-69
2024/02/01 11:12:40;;;;;;;6.70;4.07;;;;;;;10.92;100.00;102381.16;5075076;28;20075;-69
2024/02/01 11:15:16;;;;;;;9.43;4.13;;;;;;;10.94;100.00;102376.16;5071053;28;20083;-69
2024/02/01 11:17:43;;;;;;;8.10;3.60;;;;;;;11.00;100.00;102379.03;5054358;28;20446;-69
2024/02/01 11:20:09;;;;;;;6.78;3.50;;;;;;;11.05;100.00;102373.56;5070421;28;20024;-69
2024/02/01 11:22:39;;;;;;;7.00;3.65;;;;;;;11.09;100.00;102383.09;5034559;28;20432;-69
2024/02/01 11:25:05;;;;;;;5.93;3.53;;;;;;;11.12;100.00;102365.91;5069262;28;20366;-69
2024/02/01 11:27:36;;;;;;;6.63;3.53;;;;;;;11.14;100.00;102364.56;5084972;28;20035;-69
2024/02/01 11:30:19;;;;;;;5.72;3.25;;;;;;;11.17;100.00;102372.41;5054675;28;20103;-69
2024/02/01 11:32:46;;;;;;;;;;;;;;;11.22;100.00;102377.19;5071256;28;20503;-70
2024/02/01 11:35:15;;;;;;;5.10;3.40;;;;;;;11.24;100.00;102376.94;5087783;28;19908;-69
2024/02/01 11:37:40;;;;;;;5.93;3.50;;;;;;;11.28;100.00;102375.31;5063875;28;20032;-69
2024/02/01 11:40:15;;;;;;;4.53;3.13;;;;;;;11.28;100.00;102378.09;5056263;28;20495;-69
2024/02/01 11:42:45;;;;;;;4.65;3.35;;;;;;;11.32;100.00;102369.00;5067018;28;20028;-69
2024/02/01 11:45:13;;;;;;;5.82;3.20;;;;;;;11.33;100.00;102367.91;5057757;28;20060;-69
2024/02/01 11:47:39;;;;;;;6.28;3.20;;;;;;;11.37;100.00;102366.31;5058509;28;20044;-69
2024/02/01 11:50:06;;;;;;;5.10;2.95;;;;;;;11.39;100.00;102360.47;5063147;28;20039;-69
2024/02/01 11:52:58;;;;;;;8.10;3.17;;;;;;;11.41;100.00;102363.84;5065150;28;20036;-69
2024/02/01 11:55:29;;;;;;;5.25;2.40;;;;;;;11.42;100.00;102359.97;5033148;28;20031;-69
2024/02/01 11:57:57;;;;;;;4.35;2.75;;;;;;;11.43;100.00;102355.28;5030765;28;20035;-69
2024/02/01 12:00:23;;;;;;;4.63;2.63;;;;;;;11.46;100.00;102346.41;5064563;28;20548;-69
2024/02/01 12:02:49;;;;;;;4.57;2.70;;;;;;;11.49;100.00;102354.25;5048913;28;20127;-69
2024/02/01 12:05:20;;;;;;;4.97;2.63;;;;;;;11.52;100.00;102353.72;5061588;28;20028;-70
2024/02/01 12:07:47;;;;;;;4.88;2.80;;;;;;;11.53;100.00;102358.19;5070916;28;20055;-70
2024/02/01 12:10:15;;;;;;;4.07;2.88;;;;;;;11.53;100.00;102336.78;5041451;28;20039;-69
2024/02/01 12:12:42;;;;;;;5.03;2.50;;;;;;;11.56;100.00;102335.41;5076712;28;20036;-70
2024/02/01 12:15:08;;;;;;;4.95;2.70;;;;;;;11.59;100.00;102337.72;5052597;28;20501;-69
2024/02/01 12:17:48;;;;;;;4.28;2.20;;;;;;;11.63;100.00;102336.09;5048194;28;20060;-69
2024/02/01 12:20:15;;;;;;;6.13;3.60;;;;;;;11.68;100.00;102343.66;5066674;28;20036;-69
2024/02/01 12:22:44;;;;;;;4.35;3.13;;;;;;;11.70;100.00;102338.66;5082586;28;20664;-69
2024/02/01 12:25:16;;;;;;;4.93;2.90;;;;;;;11.71;100.00;102341.22;5060930;28;20035;-69
2024/02/01 12:27:45;;;;;;;6.17;3.63;;;;;;;11.73;100.00;102343.72;5060757;28;20043;-70
2024/02/01 12:30:14;;;;;;;4.82;3.00;;;;;;;11.73;100.00;102355.72;5057341;28;20039;-69
2024/02/01 12:32:46;;;;;;;4.50;3.22;;;;;;;11.77;100.00;102356.88;5083643;28;20036;-69